createdAt,value
2016-11-22T00:00:49.323Z,11.11
2016-11-22T00:01:48.964Z,11.02
2016-11-22T00:02:48.858Z,11.04
2016-11-22T00:03:48.729Z,11.07
2016-11-22T00:04:48.362Z,11.05
2016-11-22T00:05:49.109Z,11.05
2016-11-22T00:06:48.843Z,11.02
2016-11-22T00:07:49.081Z,11.05
2016-11-22T00:08:48.978Z,10.93
2016-11-22T00:09:49.117Z,10.87
2016-11-22T00:10:48.962Z,10.82
2016-11-22T00:11:48.629Z,10.86
2016-11-22T00:12:50.792Z,10.86
2016-11-22T00:13:49.227Z,10.89
2016-11-22T00:14:49.492Z,10.76
2016-11-22T00:15:48.508Z,10.79
2016-11-22T00:16:48.626Z,10.76
2016-11-22T00:17:48.985Z,10.84
2016-11-22T00:18:49.086Z,10.74
2016-11-22T00:19:49.000Z,10.72
2016-11-22T00:20:48.873Z,10.82
2016-11-22T00:21:49.008Z,10.78
2016-11-22T00:22:49.474Z,10.75
2016-11-22T00:23:48.758Z,10.79
2016-11-22T00:24:48.860Z,10.69
2016-11-22T00:25:48.278Z,10.75
2016-11-22T00:26:49.815Z,10.67
2016-11-22T00:27:49.087Z,10.75
2016-11-22T00:28:49.729Z,10.84
2016-11-22T00:29:49.718Z,10.89
2016-11-22T00:30:49.707Z,10.79
2016-11-22T00:31:49.000Z,10.86
2016-11-22T00:32:49.245Z,10.84
2016-11-22T00:33:48.882Z,10.79
2016-11-22T00:34:49.347Z,10.79
2016-11-22T00:35:48.851Z,10.76
2016-11-22T00:36:49.367Z,10.76
2016-11-22T00:37:49.007Z,10.78
2016-11-22T00:38:49.460Z,10.79
2016-11-22T00:39:49.245Z,10.79
2016-11-22T00:40:48.845Z,10.72
2016-11-22T00:41:48.727Z,10.6
2016-11-22T00:42:49.956Z,10.51
2016-11-22T00:43:48.996Z,10.48
2016-11-22T00:44:49.005Z,10.54
2016-11-22T00:45:48.870Z,10.6
2016-11-22T00:46:49.006Z,10.46
2016-11-22T00:47:48.651Z,10.42
2016-11-22T00:48:49.373Z,10.4
2016-11-22T00:49:49.616Z,10.35
2016-11-22T00:50:49.725Z,10.33
2016-11-22T00:51:49.711Z,10.3
2016-11-22T00:52:48.893Z,10.2
2016-11-22T00:53:49.018Z,10.25
2016-11-22T00:54:49.000Z,10.25
2016-11-22T00:55:49.617Z,10.23
2016-11-22T00:56:49.498Z,10.22
2016-11-22T00:57:49.256Z,10.31
2016-11-22T00:58:49.381Z,10.33
2016-11-22T00:59:49.105Z,10.26
2016-11-22T01:00:49.730Z,10.28
2016-11-22T01:01:49.460Z,10.31
2016-11-22T01:02:49.349Z,10.3
2016-11-22T01:03:49.977Z,10.33
2016-11-22T01:04:49.131Z,10.26
2016-11-22T01:05:49.490Z,10.26
2016-11-22T01:06:49.837Z,10.31
2016-11-22T01:07:49.728Z,10.28
2016-11-22T01:08:49.627Z,10.33
2016-11-22T01:09:49.101Z,10.23
2016-11-22T01:10:49.940Z,10.34
2016-11-22T01:11:49.730Z,10.28
2016-11-22T01:12:49.857Z,10.28
2016-11-22T01:13:49.266Z,10.19
2016-11-22T01:14:49.602Z,10.2
2016-11-22T01:15:49.390Z,10.2
2016-11-22T01:16:50.098Z,10.25
2016-11-22T01:17:49.721Z,10.22
2016-11-22T01:18:50.588Z,10.2
2016-11-22T01:19:50.110Z,10.12
2016-11-22T01:20:49.844Z,10.09
2016-11-22T01:21:50.079Z,9.94
2016-11-22T01:22:50.220Z,9.98
2016-11-22T01:23:50.112Z,10.02
2016-11-22T01:24:50.063Z,10.07
2016-11-22T01:25:50.918Z,10.13
2016-11-22T01:26:50.331Z,10.1
2016-11-22T01:27:50.360Z,10.01
2016-11-22T01:28:49.759Z,9.94
2016-11-22T01:29:49.996Z,9.87
2016-11-22T01:30:50.214Z,9.97
2016-11-22T01:31:50.866Z,9.99
2016-11-22T01:32:49.976Z,10.13
2016-11-22T01:33:50.449Z,10.1
2016-11-22T01:34:50.222Z,10.23
2016-11-22T01:35:50.119Z,10.3
2016-11-22T01:36:49.992Z,10.3
2016-11-22T01:37:50.579Z,10.26
2016-11-22T01:38:50.010Z,10.23
2016-11-22T01:39:50.372Z,10.22
2016-11-22T01:40:50.612Z,10.19
2016-11-22T01:41:50.364Z,10.25
2016-11-22T01:42:50.370Z,10.25
2016-11-22T01:43:50.002Z,10.09
2016-11-22T01:44:50.572Z,10.09
2016-11-22T01:45:50.455Z,9.97
2016-11-22T01:46:50.608Z,9.69
2016-11-22T01:47:50.372Z,9.64
2016-11-22T01:48:50.007Z,9.55
2016-11-22T01:49:51.071Z,9.41
2016-11-22T01:50:50.811Z,9.25
2016-11-22T01:51:51.531Z,9.31
2016-11-22T01:52:50.730Z,9.23
2016-11-22T01:53:50.136Z,9.13
2016-11-22T01:54:51.086Z,9.16
2016-11-22T01:55:50.822Z,8.97
2016-11-22T01:56:50.622Z,8.97
2016-11-22T01:57:50.728Z,8.94
2016-11-22T01:58:50.613Z,8.85
2016-11-22T01:59:50.718Z,8.88
2016-11-22T02:00:50.818Z,8.81
2016-11-22T02:01:50.484Z,8.78
2016-11-22T02:02:51.221Z,8.78
2016-11-22T02:03:51.204Z,8.69
2016-11-22T02:04:50.853Z,8.76
2016-11-22T02:05:50.834Z,8.78
2016-11-22T02:06:51.102Z,8.69
2016-11-22T02:07:50.742Z,8.53
2016-11-22T02:08:51.213Z,8.64
2016-11-22T02:09:51.817Z,8.63
2016-11-22T02:10:51.099Z,8.64
2016-11-22T02:11:52.189Z,8.58
2016-11-22T02:12:51.311Z,8.58
2016-11-22T02:13:50.728Z,8.48
2016-11-22T02:14:51.338Z,8.49
2016-11-22T02:15:51.089Z,8.49
2016-11-22T02:16:51.818Z,8.48
2016-11-22T02:17:51.304Z,8.48
2016-11-22T02:18:51.706Z,8.38
2016-11-22T02:19:51.939Z,8.38
2016-11-22T02:20:51.291Z,8.37
2016-11-22T02:21:52.290Z,8.42
2016-11-22T02:22:51.430Z,8.34
2016-11-22T02:23:51.953Z,8.38
2016-11-22T02:24:51.704Z,8.41
2016-11-22T02:25:51.424Z,8.31
2016-11-22T02:26:53.154Z,8.2
2016-11-22T02:27:51.946Z,8.19
2016-11-22T02:28:51.571Z,8.16
2016-11-22T02:29:51.194Z,8.05
2016-11-22T02:30:51.345Z,8.1
2016-11-22T02:31:53.029Z,8.03
2016-11-22T02:32:51.678Z,8.06
2016-11-22T02:33:52.663Z,8
2016-11-22T02:34:53.509Z,7.87
2016-11-22T02:35:52.899Z,7.98
2016-11-22T02:36:52.404Z,7.83
2016-11-22T02:37:54.471Z,7.9
2016-11-22T02:38:53.101Z,7.88
2016-11-22T02:39:53.025Z,7.85
2016-11-22T02:40:54.235Z,7.87
2016-11-22T02:41:52.922Z,7.88
2016-11-22T02:42:53.993Z,7.87
2016-11-22T02:43:52.540Z,7.7
2016-11-22T02:44:52.422Z,7.73
2016-11-22T02:45:52.443Z,7.82
2016-11-22T02:47:52.918Z,7.63
2016-11-22T02:48:52.197Z,7.7
2016-11-22T02:49:53.753Z,7.77
2016-11-22T02:50:53.371Z,7.63
2016-11-22T02:51:52.892Z,7.63
2016-11-22T02:52:52.206Z,7.75
2016-11-22T02:53:53.157Z,7.7
2016-11-22T02:54:54.481Z,7.72
2016-11-22T02:55:51.703Z,7.73
2016-11-22T02:56:52.555Z,7.8
2016-11-22T02:57:52.886Z,7.77
2016-11-22T02:58:51.812Z,7.82
2016-11-22T02:59:52.319Z,7.83
2016-11-22T03:00:52.406Z,7.79
2016-11-22T03:01:52.802Z,7.79
2016-11-22T03:02:51.481Z,7.93
2016-11-22T03:03:52.764Z,7.94
2016-11-22T03:04:51.802Z,7.88
2016-11-22T03:05:53.289Z,7.87
2016-11-22T03:06:52.196Z,7.83
2016-11-22T03:07:52.444Z,7.72
2016-11-22T03:08:52.443Z,7.73
2016-11-22T03:09:52.311Z,7.76
2016-11-22T03:10:52.319Z,7.72
2016-11-22T03:11:51.812Z,7.67
2016-11-22T03:12:51.962Z,7.75
2016-11-22T03:13:51.969Z,7.63
2016-11-22T03:14:53.029Z,7.75
2016-11-22T03:15:52.676Z,7.76
2016-11-22T03:16:53.399Z,7.85
2016-11-22T03:17:52.317Z,7.87
2016-11-22T03:18:52.333Z,8.03
2016-11-22T03:19:51.957Z,8.06
2016-11-22T03:20:51.487Z,8.13
2016-11-22T03:21:51.838Z,8.45
2016-11-22T03:22:52.199Z,8.81
2016-11-22T03:23:51.973Z,9.16
2016-11-22T03:24:52.452Z,9.46
2016-11-22T03:25:52.571Z,9.87
2016-11-22T03:26:52.458Z,10.26
2016-11-22T03:27:52.845Z,10.4
2016-11-22T03:28:52.301Z,10.51
2016-11-22T03:29:52.329Z,10.69
2016-11-22T03:30:52.929Z,10.71
2016-11-22T03:31:52.922Z,10.71
2016-11-22T03:32:51.715Z,10.81
2016-11-22T03:33:53.039Z,10.84
2016-11-22T03:34:52.941Z,10.82
2016-11-22T03:35:52.686Z,10.79
2016-11-22T03:36:52.212Z,10.79
2016-11-22T03:37:52.934Z,10.69
2016-11-22T03:38:52.940Z,10.61
2016-11-22T03:39:52.314Z,10.57
2016-11-22T03:40:53.181Z,10.44
2016-11-22T03:41:52.464Z,10.54
2016-11-22T03:42:52.805Z,10.42
2016-11-22T03:43:52.343Z,10.4
2016-11-22T03:44:52.702Z,10.38
2016-11-22T03:45:52.582Z,10.48
2016-11-22T03:46:52.327Z,10.46
2016-11-22T03:47:52.578Z,10.54
2016-11-22T03:48:52.357Z,10.63
2016-11-22T03:49:52.946Z,10.64
2016-11-22T03:50:52.461Z,10.56
2016-11-22T03:51:52.547Z,10.56
2016-11-22T03:52:52.683Z,10.56
2016-11-22T03:53:52.104Z,10.48
2016-11-22T03:54:52.471Z,10.41
2016-11-22T03:55:52.690Z,10.49
2016-11-22T03:56:52.691Z,10.49
2016-11-22T03:57:52.569Z,10.42
2016-11-22T03:58:52.691Z,10.46
2016-11-22T03:59:53.318Z,10.37
2016-11-22T04:00:52.693Z,10.35
2016-11-22T04:01:52.710Z,10.34
2016-11-22T04:02:53.076Z,10.3
2016-11-22T04:03:53.191Z,10.31
2016-11-22T04:04:52.908Z,10.22
2016-11-22T04:05:53.154Z,10.2
2016-11-22T04:06:52.595Z,10.15
2016-11-22T04:07:53.157Z,10.15
2016-11-22T04:08:52.959Z,10.28
2016-11-22T04:09:52.478Z,10.37
2016-11-22T04:10:52.823Z,10.31
2016-11-22T04:11:52.679Z,10.4
2016-11-22T04:12:52.703Z,10.38
2016-11-22T04:13:52.927Z,10.38
2016-11-22T04:14:52.965Z,10.37
2016-11-22T04:15:52.841Z,10.51
2016-11-22T04:16:53.077Z,10.42
2016-11-22T04:17:52.840Z,10.37
2016-11-22T04:18:52.964Z,10.44
2016-11-22T04:19:52.812Z,10.44
2016-11-22T04:20:53.082Z,10.38
2016-11-22T04:21:52.601Z,10.3
2016-11-22T04:22:52.842Z,10.26
2016-11-22T04:23:53.212Z,10.23
2016-11-22T04:24:52.928Z,10.22
2016-11-22T04:25:52.692Z,10.2
2016-11-22T04:26:53.287Z,10.26
2016-11-22T04:27:53.662Z,10.23
2016-11-22T04:28:53.415Z,10.26
2016-11-22T04:29:53.307Z,10.34
2016-11-22T04:30:52.742Z,10.44
2016-11-22T04:31:53.170Z,10.44
2016-11-22T04:32:53.187Z,10.44
2016-11-22T04:33:53.200Z,10.4
2016-11-22T04:34:53.334Z,10.4
2016-11-22T04:35:53.823Z,10.35
2016-11-22T04:36:53.427Z,10.38
2016-11-22T04:37:53.317Z,10.42
2016-11-22T04:38:53.433Z,10.44
2016-11-22T04:39:53.216Z,10.57
2016-11-22T04:40:53.301Z,10.71
2016-11-22T04:41:53.701Z,10.78
2016-11-22T04:42:53.669Z,10.87
2016-11-22T04:43:53.549Z,10.84
2016-11-22T04:44:53.581Z,10.87
2016-11-22T04:45:54.516Z,10.82
2016-11-22T04:46:52.813Z,10.89
2016-11-22T04:47:53.537Z,10.75
2016-11-22T04:48:53.238Z,10.79
2016-11-22T04:49:53.550Z,10.72
2016-11-22T04:50:54.292Z,10.72
2016-11-22T04:51:53.681Z,10.74
2016-11-22T04:52:53.720Z,10.78
2016-11-22T04:53:54.032Z,10.78
2016-11-22T04:54:54.396Z,10.81
2016-11-22T04:55:54.016Z,10.75
2016-11-22T04:56:53.316Z,10.76
2016-11-22T04:57:53.425Z,10.78
2016-11-22T04:58:53.225Z,10.74
2016-11-22T04:59:53.904Z,10.64
2016-11-22T05:00:53.720Z,10.69
2016-11-22T05:01:53.622Z,10.57
2016-11-22T05:02:53.314Z,10.61
2016-11-22T05:03:53.901Z,10.56
2016-11-22T05:04:53.467Z,10.48
2016-11-22T05:05:52.870Z,10.46
2016-11-22T05:06:53.340Z,10.51
2016-11-22T05:07:52.986Z,10.42
2016-11-22T05:08:52.988Z,10.48
2016-11-22T05:09:53.102Z,10.42
2016-11-22T05:10:52.981Z,10.42
2016-11-22T05:11:53.710Z,10.35
2016-11-22T05:12:53.826Z,10.49
2016-11-22T05:13:54.049Z,10.34
2016-11-22T05:14:54.769Z,10.37
2016-11-22T05:15:55.036Z,10.34
2016-11-22T05:16:54.446Z,10.38
2016-11-22T05:17:54.752Z,10.33
2016-11-22T05:18:54.561Z,10.35
2016-11-22T05:19:54.520Z,10.33
2016-11-22T05:20:55.062Z,10.48
2016-11-22T05:21:54.821Z,10.35
2016-11-22T05:22:54.401Z,10.38
2016-11-22T05:23:55.391Z,10.35
2016-11-22T05:24:54.813Z,10.35
2016-11-22T05:25:54.917Z,10.34
2016-11-22T05:26:54.802Z,10.34
2016-11-22T05:27:54.564Z,10.35
2016-11-22T05:28:56.612Z,10.42
2016-11-22T05:29:55.019Z,10.34
2016-11-22T05:30:55.170Z,10.35
2016-11-22T05:31:54.076Z,10.31
2016-11-22T05:32:54.574Z,10.34
2016-11-22T05:33:54.940Z,10.33
2016-11-22T05:34:54.447Z,10.34
2016-11-22T05:35:55.775Z,10.34
2016-11-22T05:36:55.291Z,10.4
2016-11-22T05:37:55.536Z,10.35
2016-11-22T05:38:54.791Z,10.33
2016-11-22T05:39:56.255Z,10.37
2016-11-22T05:40:55.376Z,10.37
2016-11-22T05:41:56.856Z,10.34
2016-11-22T05:42:55.509Z,10.37
2016-11-22T05:43:54.916Z,10.33
2016-11-22T05:44:56.135Z,10.25
2016-11-22T05:45:55.789Z,10.25
2016-11-22T05:46:55.646Z,10.16
2016-11-22T05:47:55.183Z,10.19
2016-11-22T05:48:56.857Z,10.1
2016-11-22T05:49:55.418Z,10.07
2016-11-22T05:50:55.550Z,10.05
2016-11-22T05:51:56.382Z,10.05
2016-11-22T05:52:56.385Z,9.94
2016-11-22T05:53:55.775Z,10.01
2016-11-22T05:54:57.574Z,9.98
2016-11-22T05:55:55.629Z,10.07
2016-11-22T05:56:56.611Z,10.12
2016-11-22T05:57:56.003Z,10.05
2016-11-22T05:58:57.576Z,10.01
2016-11-22T05:59:55.531Z,10.02
2016-11-22T06:00:56.620Z,10.17
2016-11-22T06:01:55.789Z,10.16
2016-11-22T06:02:56.749Z,10.1
2016-11-22T06:03:56.731Z,10.02
2016-11-22T06:04:55.312Z,9.98
2016-11-22T06:05:57.361Z,9.94
2016-11-22T06:06:57.468Z,9.95
2016-11-22T06:07:56.739Z,9.86
2016-11-22T06:08:56.620Z,9.86
2016-11-22T06:09:55.410Z,9.83
2016-11-22T06:10:55.794Z,9.94
2016-11-22T06:11:55.535Z,9.86
2016-11-22T06:12:56.645Z,9.95
2016-11-22T06:13:55.555Z,9.87
2016-11-22T06:14:56.155Z,9.83
2016-11-22T06:15:56.756Z,9.74
2016-11-22T06:16:57.601Z,9.82
2016-11-22T06:17:55.434Z,9.83
2016-11-22T06:18:55.914Z,9.8
2016-11-22T06:19:57.075Z,9.69
2016-11-22T06:20:55.310Z,9.69
2016-11-22T06:21:55.883Z,9.73
2016-11-22T06:22:55.067Z,9.72
2016-11-22T06:23:55.799Z,9.73
2016-11-22T06:24:56.399Z,9.68
2016-11-22T06:25:56.376Z,9.69
2016-11-22T06:26:55.886Z,9.62
2016-11-22T06:27:54.960Z,9.66
2016-11-22T06:28:55.803Z,9.62
2016-11-22T06:29:56.127Z,9.95
2016-11-22T06:30:55.557Z,10.25
2016-11-22T06:31:55.909Z,10.67
2016-11-22T06:32:55.904Z,10.84
2016-11-22T06:33:56.516Z,10.86
2016-11-22T06:34:55.909Z,10.93
2016-11-22T06:35:55.458Z,11.04
2016-11-22T06:36:56.410Z,11.05
2016-11-22T06:37:56.162Z,11.17
2016-11-22T06:38:55.814Z,11.19
2016-11-22T06:39:55.905Z,11.29
2016-11-22T06:40:55.190Z,11.37
2016-11-22T06:41:56.179Z,11.37
2016-11-22T06:42:55.800Z,11.43
2016-11-22T06:43:55.809Z,11.45
2016-11-22T06:44:56.991Z,11.55
2016-11-22T06:45:55.675Z,11.47
2016-11-22T06:46:55.710Z,11.45
2016-11-22T06:47:55.569Z,11.51
2016-11-22T06:48:54.964Z,11.51
2016-11-22T06:49:56.869Z,11.32
2016-11-22T06:50:55.687Z,11.22
2016-11-22T06:51:56.037Z,11.14
2016-11-22T06:52:56.161Z,11.07
2016-11-22T06:53:55.783Z,11.05
2016-11-22T06:54:56.279Z,11.12
2016-11-22T06:55:56.175Z,11.07
2016-11-22T06:56:56.043Z,11.08
2016-11-22T06:57:55.221Z,11.08
2016-11-22T06:58:56.175Z,11.22
2016-11-22T06:59:56.157Z,11.3
2016-11-22T07:00:54.853Z,11.19
2016-11-22T07:01:55.915Z,11.23
2016-11-22T07:02:56.069Z,11.12
2016-11-22T07:03:56.042Z,11.19
2016-11-22T07:04:55.690Z,11.08
2016-11-22T07:05:55.808Z,11.02
2016-11-22T07:06:55.946Z,10.86
2016-11-22T07:07:56.395Z,10.86
2016-11-22T07:08:56.424Z,10.69
2016-11-22T07:09:56.516Z,10.54
2016-11-22T07:10:55.817Z,10.54
2016-11-22T07:11:56.666Z,10.53
2016-11-22T07:12:56.402Z,10.56
2016-11-22T07:13:56.185Z,10.56
2016-11-22T07:14:56.288Z,10.6
2016-11-22T07:15:56.190Z,10.56
2016-11-22T07:16:56.307Z,10.57
2016-11-22T07:17:57.149Z,10.6
2016-11-22T07:18:56.302Z,10.51
2016-11-22T07:19:56.669Z,10.57
2016-11-22T07:20:57.269Z,10.56
2016-11-22T07:21:56.059Z,10.59
2016-11-22T07:22:56.192Z,10.56
2016-11-22T07:23:56.075Z,10.61
2016-11-22T07:24:56.764Z,10.53
2016-11-22T07:25:56.786Z,10.57
2016-11-22T07:26:57.849Z,10.53
2016-11-22T07:27:56.558Z,10.44
2016-11-22T07:28:57.388Z,10.44
2016-11-22T07:29:56.916Z,10.54
2016-11-22T07:30:56.916Z,10.46
2016-11-22T07:31:57.035Z,10.51
2016-11-22T07:32:57.499Z,10.46
2016-11-22T07:33:56.678Z,10.41
2016-11-22T07:34:57.747Z,10.42
2016-11-22T07:35:56.649Z,10.46
2016-11-22T07:36:57.876Z,10.51
2016-11-22T07:37:56.077Z,10.53
2016-11-22T07:38:56.772Z,10.48
2016-11-22T07:39:56.561Z,10.48
2016-11-22T07:40:57.272Z,10.51
2016-11-22T07:41:57.285Z,10.53
2016-11-22T07:42:57.403Z,10.56
2016-11-22T07:43:57.260Z,10.61
2016-11-22T07:44:57.511Z,10.61
2016-11-22T07:45:57.297Z,10.61
2016-11-22T07:46:56.928Z,10.68
2016-11-22T07:47:58.261Z,10.72
2016-11-22T07:48:57.871Z,10.67
2016-11-22T07:49:57.271Z,10.72
2016-11-22T07:50:57.983Z,10.9
2016-11-22T07:51:57.489Z,10.93
2016-11-22T07:52:57.286Z,11.05
2016-11-22T07:53:56.926Z,11.1
2016-11-22T07:54:56.688Z,11.19
2016-11-22T07:55:56.927Z,11.07
2016-11-22T07:56:57.289Z,11.17
2016-11-22T07:57:56.788Z,11.12
2016-11-22T07:58:57.046Z,11.18
2016-11-22T07:59:57.028Z,11.08
2016-11-22T08:00:56.927Z,11.19
2016-11-22T08:01:56.904Z,11.19
2016-11-22T08:02:56.552Z,11.11
2016-11-22T08:03:57.028Z,11.11
2016-11-22T08:04:56.805Z,11.08
2016-11-22T08:05:57.427Z,11.19
2016-11-22T08:06:57.529Z,11.22
2016-11-22T08:07:57.148Z,11.18
2016-11-22T08:08:57.294Z,11.29
2016-11-22T08:09:57.132Z,11.37
2016-11-22T08:10:57.151Z,11.35
2016-11-22T08:11:57.176Z,11.37
2016-11-22T08:12:57.495Z,11.44
2016-11-22T08:13:57.274Z,11.36
2016-11-22T08:14:57.145Z,11.4
2016-11-22T08:15:57.147Z,11.36
2016-11-22T08:16:57.284Z,11.37
2016-11-22T08:17:56.914Z,11.41
2016-11-22T08:18:57.054Z,11.45
2016-11-22T08:19:56.790Z,11.44
2016-11-22T08:20:57.175Z,11.47
2016-11-22T08:21:57.783Z,11.51
2016-11-22T08:22:57.627Z,11.48
2016-11-22T08:23:57.380Z,11.54
2016-11-22T08:24:57.186Z,11.47
2016-11-22T08:25:57.407Z,11.62
2016-11-22T08:26:57.183Z,11.57
2016-11-22T08:27:58.018Z,11.62
2016-11-22T08:28:57.982Z,11.55
2016-11-22T08:29:57.754Z,11.63
2016-11-22T08:30:57.063Z,11.63
2016-11-22T08:31:57.281Z,11.57
2016-11-22T08:32:57.292Z,11.66
2016-11-22T08:33:57.906Z,11.66
2016-11-22T08:34:57.407Z,11.6
2016-11-22T08:35:58.132Z,11.59
2016-11-22T08:36:57.190Z,11.6
2016-11-22T08:37:58.266Z,11.57
2016-11-22T08:38:57.283Z,11.62
2016-11-22T08:39:57.329Z,11.6
2016-11-22T08:40:58.996Z,11.77
2016-11-22T08:41:58.135Z,11.72
2016-11-22T08:42:57.916Z,11.83
2016-11-22T08:43:57.407Z,11.78
2016-11-22T08:44:57.310Z,11.78
2016-11-22T08:45:58.615Z,11.87
2016-11-22T08:46:57.998Z,11.84
2016-11-22T08:47:57.791Z,11.87
2016-11-22T08:48:57.511Z,11.91
2016-11-22T08:49:58.600Z,11.91
2016-11-22T08:50:58.517Z,11.99
2016-11-22T08:51:58.027Z,12.13
2016-11-22T08:52:58.275Z,12.22
2016-11-22T08:53:57.672Z,12.24
2016-11-22T08:54:59.355Z,12.25
2016-11-22T08:55:58.350Z,12.25
2016-11-22T08:56:57.896Z,12.24
2016-11-22T08:57:58.273Z,12.36
2016-11-22T08:58:58.162Z,12.32
2016-11-22T08:59:56.947Z,12.27
2016-11-22T09:00:57.315Z,12.28
2016-11-22T09:01:57.315Z,12.27
2016-11-22T09:02:58.040Z,12.18
2016-11-22T09:03:58.160Z,12.12
2016-11-22T09:04:58.771Z,12.12
2016-11-22T09:05:57.927Z,12.07
2016-11-22T09:06:58.643Z,12.03
2016-11-22T09:07:58.372Z,12.04
2016-11-22T09:08:59.576Z,12.04
2016-11-22T09:09:59.493Z,12.02
2016-11-22T09:10:58.524Z,12.06
2016-11-22T09:11:59.975Z,12.02
2016-11-22T09:12:58.286Z,12
2016-11-22T09:13:58.125Z,12.07
2016-11-22T09:15:00.332Z,12.09
2016-11-22T09:15:59.369Z,12.02
2016-11-22T09:16:59.735Z,12.1
2016-11-22T09:17:58.538Z,12.03
2016-11-22T09:18:59.844Z,11.94
2016-11-22T09:20:00.452Z,12.02
2016-11-22T09:20:59.491Z,11.99
2016-11-22T09:21:59.257Z,11.95
2016-11-22T09:23:00.097Z,11.91
2016-11-22T09:23:59.603Z,11.91
2016-11-22T09:25:00.454Z,11.97
2016-11-22T09:25:59.873Z,11.91
2016-11-22T09:27:00.212Z,11.95
2016-11-22T09:28:01.185Z,11.87
2016-11-22T09:29:00.454Z,11.9
2016-11-22T09:29:58.538Z,11.88
2016-11-22T09:30:58.509Z,11.91
2016-11-22T09:31:58.535Z,11.94
2016-11-22T09:32:59.239Z,11.97
2016-11-22T09:33:58.636Z,11.94
2016-11-22T09:34:58.879Z,11.97
2016-11-22T09:35:58.414Z,11.94
2016-11-22T09:36:59.146Z,11.99
2016-11-22T09:37:59.718Z,11.99
2016-11-22T09:38:59.607Z,11.94
2016-11-22T09:40:00.199Z,11.95
2016-11-22T09:40:59.377Z,11.97
2016-11-22T09:41:59.500Z,11.9
2016-11-22T09:42:58.781Z,11.97
2016-11-22T09:43:59.144Z,12.06
2016-11-22T09:44:59.255Z,12.02
2016-11-22T09:45:58.660Z,11.97
2016-11-22T09:46:59.142Z,12
2016-11-22T09:47:59.862Z,12.1
2016-11-22T09:48:58.546Z,12.07
2016-11-22T09:49:58.750Z,12.18
2016-11-22T09:50:59.143Z,12.13
2016-11-22T09:51:58.650Z,12.21
2016-11-22T09:52:59.489Z,12.24
2016-11-22T09:53:59.393Z,12.18
2016-11-22T09:54:59.988Z,12.22
2016-11-22T09:55:59.635Z,12.27
2016-11-22T09:56:59.258Z,12.27
2016-11-22T09:57:59.001Z,12.2
2016-11-22T09:58:59.752Z,12.2
2016-11-22T09:59:59.868Z,12.25
2016-11-22T10:00:58.551Z,12.29
2016-11-22T10:01:58.185Z,12.4
2016-11-22T10:02:58.065Z,12.35
2016-11-22T10:03:58.065Z,12.39
2016-11-22T10:04:58.783Z,12.42
2016-11-22T10:05:58.673Z,12.4
2016-11-22T10:06:59.398Z,12.47
2016-11-22T10:07:58.918Z,12.58
2016-11-22T10:08:59.158Z,12.64
2016-11-22T10:09:59.000Z,12.62
2016-11-22T10:10:58.888Z,12.7
2016-11-22T10:12:01.560Z,12.72
2016-11-22T10:12:59.879Z,12.75
2016-11-22T10:13:58.921Z,12.86
2016-11-22T10:14:58.771Z,12.83
2016-11-22T10:15:59.251Z,12.86
2016-11-22T10:16:59.401Z,12.9
2016-11-22T10:17:59.853Z,12.86
2016-11-22T10:18:59.043Z,12.94
2016-11-22T10:19:58.897Z,12.87
2016-11-22T10:20:59.159Z,12.87
2016-11-22T10:21:59.724Z,12.93
2016-11-22T10:22:59.048Z,12.98
2016-11-22T10:24:00.004Z,12.97
2016-11-22T10:24:59.880Z,12.98
2016-11-22T10:25:59.401Z,12.95
2016-11-22T10:26:59.380Z,12.91
2016-11-22T10:27:59.763Z,12.93
2016-11-22T10:28:59.407Z,13
2016-11-22T10:29:59.756Z,12.91
2016-11-22T10:31:00.235Z,12.97
2016-11-22T10:31:59.530Z,12.97
2016-11-22T10:32:59.862Z,12.94
2016-11-22T10:33:59.522Z,12.9
2016-11-22T10:34:59.401Z,12.86
2016-11-22T10:35:59.532Z,12.83
2016-11-22T10:36:59.166Z,12.87
2016-11-22T10:37:59.534Z,12.9
2016-11-22T10:38:59.294Z,12.97
2016-11-22T10:39:59.768Z,12.95
2016-11-22T10:41:00.013Z,12.98
2016-11-22T10:42:00.261Z,13.01
2016-11-22T10:43:00.126Z,13.05
2016-11-22T10:44:00.335Z,13.09
2016-11-22T10:44:59.762Z,13.05
2016-11-22T10:45:59.747Z,13
2016-11-22T10:46:59.649Z,13.09
2016-11-22T10:47:59.651Z,13.13
2016-11-22T10:48:59.417Z,13.09
2016-11-22T10:49:59.519Z,13.15
2016-11-22T10:50:59.304Z,13.13
2016-11-22T10:51:59.400Z,13.33
2016-11-22T10:52:59.652Z,13.31
2016-11-22T10:54:00.228Z,13.33
2016-11-22T10:55:00.135Z,13.25
2016-11-22T10:56:00.031Z,13.37
2016-11-22T10:56:59.774Z,13.31
2016-11-22T10:57:59.512Z,13.37
2016-11-22T10:58:59.765Z,13.33
2016-11-22T11:00:00.149Z,13.41
2016-11-22T11:00:59.999Z,13.37
2016-11-22T11:02:00.109Z,13.39
2016-11-22T11:02:59.997Z,13.35
2016-11-22T11:03:59.663Z,13.3
2016-11-22T11:05:00.108Z,13.3
2016-11-22T11:06:00.111Z,13.41
2016-11-22T11:07:00.246Z,13.35
2016-11-22T11:07:59.648Z,13.38
2016-11-22T11:08:59.637Z,13.44
2016-11-22T11:10:00.605Z,13.52
2016-11-22T11:11:00.015Z,13.54
2016-11-22T11:12:00.017Z,13.52
2016-11-22T11:13:00.263Z,13.49
2016-11-22T11:13:59.635Z,13.39
2016-11-22T11:15:00.033Z,13.42
2016-11-22T11:16:00.273Z,13.49
2016-11-22T11:16:59.679Z,13.56
2016-11-22T11:18:00.360Z,13.54
2016-11-22T11:18:59.800Z,13.56
2016-11-22T11:19:59.881Z,13.57
2016-11-22T11:21:00.645Z,13.67
2016-11-22T11:22:01.831Z,13.54
2016-11-22T11:23:00.506Z,13.6
2016-11-22T11:24:00.768Z,13.6
2016-11-22T11:25:01.327Z,13.65
2016-11-22T11:26:00.641Z,13.6
2016-11-22T11:27:00.366Z,13.62
2016-11-22T11:28:00.882Z,13.65
2016-11-22T11:29:01.331Z,13.59
2016-11-22T11:30:01.000Z,13.68
2016-11-22T11:31:01.211Z,13.67
2016-11-22T11:32:00.853Z,13.63
2016-11-22T11:33:00.969Z,13.65
2016-11-22T11:34:00.901Z,13.56
2016-11-22T11:35:01.109Z,13.56
2016-11-22T11:36:01.221Z,13.59
2016-11-22T11:37:01.013Z,13.71
2016-11-22T11:38:00.649Z,13.72
2016-11-22T11:39:01.221Z,13.71
2016-11-22T11:40:01.098Z,13.74
2016-11-22T11:41:01.402Z,13.75
2016-11-22T11:42:01.098Z,13.79
2016-11-22T11:43:00.731Z,13.77
2016-11-22T11:44:01.244Z,13.78
2016-11-22T11:45:01.367Z,13.85
2016-11-22T11:46:01.211Z,13.89
2016-11-22T11:47:01.015Z,13.9
2016-11-22T11:48:01.338Z,13.87
2016-11-22T11:49:01.245Z,14
2016-11-22T11:50:01.445Z,13.96
2016-11-22T11:51:01.018Z,14
2016-11-22T11:52:01.221Z,14.15
2016-11-22T11:53:01.096Z,14.03
2016-11-22T11:54:01.615Z,14.1
2016-11-22T11:55:00.879Z,14.07
2016-11-22T11:56:01.497Z,14.12
2016-11-22T11:57:01.977Z,14.05
2016-11-22T11:58:01.622Z,14.03
2016-11-22T11:59:01.857Z,13.99
2016-11-22T12:00:01.861Z,14.04
2016-11-22T12:01:01.591Z,13.99
2016-11-22T12:02:01.601Z,13.9
2016-11-22T12:03:01.022Z,13.92
2016-11-22T12:04:01.839Z,13.89
2016-11-22T12:05:01.010Z,13.89
2016-11-22T12:06:01.854Z,13.87
2016-11-22T12:07:01.620Z,13.74
2016-11-22T12:08:01.861Z,13.77
2016-11-22T12:09:02.463Z,13.77
2016-11-22T12:10:01.746Z,13.79
2016-11-22T12:11:01.997Z,13.77
2016-11-22T12:12:01.849Z,13.77
2016-11-22T12:13:02.295Z,13.68
2016-11-22T12:14:02.662Z,13.7
2016-11-22T12:15:02.196Z,13.68
2016-11-22T12:16:02.476Z,13.62
2016-11-22T12:17:01.992Z,13.63
2016-11-22T12:18:02.851Z,13.56
2016-11-22T12:19:02.077Z,13.57
2016-11-22T12:20:01.992Z,13.56
2016-11-22T12:21:02.233Z,13.53
2016-11-22T12:22:02.573Z,13.52
2016-11-22T12:23:03.076Z,13.56
2016-11-22T12:24:03.191Z,13.47
2016-11-22T12:25:02.233Z,13.52
2016-11-22T12:26:03.070Z,13.47
2016-11-22T12:27:03.668Z,13.5
2016-11-22T12:28:02.361Z,13.49
2016-11-22T12:29:02.920Z,13.53
2016-11-22T12:30:03.801Z,13.46
2016-11-22T12:31:02.578Z,13.52
2016-11-22T12:32:02.118Z,13.47
2016-11-22T12:33:04.514Z,13.47
2016-11-22T12:34:04.275Z,13.5
2016-11-22T12:35:03.315Z,13.5
2016-11-22T12:36:02.452Z,13.5
2016-11-22T12:37:03.169Z,13.54
2016-11-22T12:38:03.323Z,13.52
2016-11-22T12:39:02.921Z,13.53
2016-11-22T12:40:04.157Z,13.52
2016-11-22T12:41:04.036Z,13.57
2016-11-22T12:42:04.638Z,13.5
2016-11-22T12:43:02.480Z,13.5
2016-11-22T12:44:03.694Z,13.57
2016-11-22T12:45:02.966Z,13.56
2016-11-22T12:46:01.367Z,13.56
2016-11-22T12:49:01.388Z,13.56
2016-11-22T12:50:02.032Z,13.47
2016-11-22T12:51:02.995Z,13.46
2016-11-22T12:52:01.950Z,13.46
2016-11-22T12:53:02.545Z,13.44
2016-11-22T12:54:02.533Z,13.41
2016-11-22T12:55:02.097Z,13.41
2016-11-22T12:56:02.016Z,13.39
2016-11-22T12:57:01.735Z,13.46
2016-11-22T12:58:02.333Z,13.35
2016-11-22T12:59:03.052Z,13.37
2016-11-22T13:00:03.661Z,13.39
2016-11-22T13:01:02.607Z,13.44
2016-11-22T13:02:03.045Z,13.38
2016-11-22T13:03:03.461Z,13.41